createdAt,value
2018-11-29T00:01:58.072Z,13.80
2018-11-29T00:04:26.235Z,18.33
2018-11-29T00:06:54.390Z,13.77
2018-11-29T00:09:22.536Z,13.60
2018-11-29T00:11:50.692Z,12.47
2018-11-29T00:14:18.830Z,10.20
2018-11-29T00:16:46.985Z,14.13
2018-11-29T00:19:15.133Z,10.60
2018-11-29T00:21:43.329Z,10.83
2018-11-29T00:24:11.481Z,11.63
2018-11-29T00:26:39.654Z,11.40
2018-11-29T00:29:07.805Z,13.13
2018-11-29T00:31:35.958Z,11.90
2018-11-29T00:34:04.117Z,12.83
2018-11-29T00:36:32.254Z,15.33
2018-11-29T00:39:00.407Z,15.60
2018-11-29T00:41:28.553Z,11.93
2018-11-29T00:43:56.677Z,16.57
2018-11-29T00:46:24.884Z,12.63
2018-11-29T00:48:53.060Z,13.97
2018-11-29T00:51:21.212Z,10.50
2018-11-29T00:53:49.369Z,10.43
2018-11-29T00:56:17.520Z,12.07
2018-11-29T00:58:45.683Z,11.60
2018-11-29T01:01:13.826Z,11.90
2018-11-29T01:03:41.999Z,12.40
2018-11-29T01:06:10.168Z,12.20
2018-11-29T01:08:38.312Z,9.53
2018-11-29T01:11:06.460Z,12.83
2018-11-29T01:13:34.608Z,12.90
2018-11-29T01:16:02.743Z,10.30
2018-11-29T01:18:30.904Z,10.20
2018-11-29T01:20:59.053Z,10.07
2018-11-29T01:23:27.201Z,10.60
2018-11-29T01:25:55.353Z,11.90
2018-11-29T01:28:23.505Z,11.87
2018-11-29T01:30:51.657Z,9.53
2018-11-29T01:33:19.817Z,8.80
2018-11-29T01:35:47.959Z,9.53
2018-11-29T01:38:16.107Z,9.13
2018-11-29T01:40:44.268Z,11.83
2018-11-29T01:43:12.422Z,11.20
2018-11-29T01:45:40.600Z,9.33
2018-11-29T01:48:09.066Z,12.23
2018-11-29T01:50:37.199Z,12.63
2018-11-29T01:53:05.576Z,8.20
2018-11-29T01:55:34.089Z,11.00
2018-11-29T01:58:02.270Z,10.70
2018-11-29T02:00:30.438Z,13.20
2018-11-29T02:02:58.576Z,10.67
2018-11-29T02:05:26.720Z,8.63
2018-11-29T02:07:54.919Z,14.17
2018-11-29T02:10:25.614Z,9.97
2018-11-29T02:12:54.028Z,10.10
2018-11-29T02:15:22.207Z,9.23
2018-11-29T02:17:50.376Z,12.97
2018-11-29T02:20:18.871Z,14.87
2018-11-29T02:22:47.260Z,12.17
2018-11-29T02:25:15.429Z,11.83
2018-11-29T02:27:43.593Z,10.60
2018-11-29T02:30:13.573Z,10.43
2018-11-29T02:32:41.785Z,10.00
2018-11-29T02:35:09.917Z,11.13
2018-11-29T02:37:38.093Z,10.10
2018-11-29T02:40:08.060Z,11.87
2018-11-29T02:42:36.226Z,11.83
2018-11-29T02:45:04.914Z,11.70
2018-11-29T02:47:33.113Z,10.63
2018-11-29T02:50:01.343Z,12.43
2018-11-29T02:52:29.481Z,10.13
2018-11-29T02:54:57.677Z,10.67
2018-11-29T02:57:25.868Z,13.17
2018-11-29T02:59:53.996Z,12.67
2018-11-29T03:02:22.180Z,11.80
2018-11-29T03:04:50.347Z,9.47
2018-11-29T03:07:18.559Z,10.23
2018-11-29T03:09:46.726Z,11.63
2018-11-29T03:12:14.892Z,12.40
2018-11-29T03:14:43.040Z,13.33
2018-11-29T03:17:11.195Z,13.17
2018-11-29T03:19:39.352Z,12.67
2018-11-29T03:22:07.514Z,12.17
2018-11-29T03:24:35.657Z,12.00
2018-11-29T03:27:03.816Z,12.13
2018-11-29T03:29:31.965Z,12.70
2018-11-29T03:32:00.144Z,10.17
2018-11-29T03:34:28.309Z,13.13
2018-11-29T03:36:56.483Z,11.00
2018-11-29T03:39:24.623Z,12.47
2018-11-29T03:41:52.768Z,10.67
2018-11-29T03:44:20.900Z,9.43
2018-11-29T03:46:49.065Z,9.33
2018-11-29T03:49:17.219Z,13.17
2018-11-29T03:51:45.457Z,10.17
2018-11-29T03:54:13.655Z,10.30
2018-11-29T03:56:41.788Z,11.03
2018-11-29T03:59:09.952Z,10.40
2018-11-29T04:01:38.081Z,10.60
2018-11-29T04:04:06.258Z,12.67
2018-11-29T04:06:34.417Z,11.23
2018-11-29T04:09:02.606Z,10.33
2018-11-29T04:11:30.759Z,10.83
2018-11-29T04:13:58.928Z,11.87
2018-11-29T04:16:27.078Z,14.53
2018-11-29T04:18:55.223Z,10.47
2018-11-29T04:21:23.370Z,10.33
2018-11-29T04:23:51.529Z,10.60
2018-11-29T04:26:19.681Z,15.10
2018-11-29T04:28:47.842Z,12.03
2018-11-29T04:31:16.003Z,10.63
2018-11-29T04:33:44.168Z,11.40
2018-11-29T04:36:12.326Z,10.80
2018-11-29T04:38:40.486Z,10.00
2018-11-29T04:41:08.648Z,9.10
2018-11-29T04:43:36.812Z,10.90
2018-11-29T04:47:14.421Z,13.17
2018-11-29T04:49:42.972Z,8.43
2018-11-29T04:52:11.545Z,11.57
2018-11-29T04:54:39.724Z,9.80
2018-11-29T04:57:07.901Z,12.77
2018-11-29T04:59:36.052Z,11.17
2018-11-29T05:02:04.381Z,10.43
2018-11-29T05:04:32.532Z,8.60
2018-11-29T05:07:00.675Z,11.60
2018-11-29T05:09:29.789Z,9.13
2018-11-29T05:11:57.933Z,8.20
2018-11-29T05:14:26.078Z,11.53
2018-11-29T05:16:54.236Z,6.80
2018-11-29T05:19:22.420Z,6.13
2018-11-29T05:21:50.582Z,6.13
2018-11-29T05:24:18.735Z,6.40
2018-11-29T05:26:46.865Z,6.70
2018-11-29T05:29:15.021Z,8.43
2018-11-29T05:31:43.177Z,7.10
2018-11-29T05:34:11.315Z,8.40
2018-11-29T05:36:39.453Z,6.60
2018-11-29T05:39:07.597Z,7.50
2018-11-29T05:41:35.742Z,5.73
2018-11-29T05:44:03.880Z,6.87
2018-11-29T05:46:32.033Z,6.50
2018-11-29T05:49:00.185Z,5.87
2018-11-29T05:51:28.364Z,9.77
2018-11-29T05:53:56.676Z,6.13
2018-11-29T05:56:24.813Z,6.70
2018-11-29T05:58:52.947Z,5.03
2018-11-29T06:01:25.157Z,6.73
2018-11-29T06:03:53.293Z,5.40
2018-11-29T06:06:21.453Z,7.43
2018-11-29T06:08:49.618Z,8.57
2018-11-29T06:11:17.748Z,8.97
2018-11-29T06:13:45.908Z,7.50
2018-11-29T06:16:14.077Z,7.67
2018-11-29T06:18:42.230Z,8.07
2018-11-29T06:21:10.390Z,9.03
2018-11-29T06:23:38.616Z,9.20
2018-11-29T06:26:06.748Z,10.00
2018-11-29T06:28:35.125Z,7.27
2018-11-29T06:31:03.313Z,9.00
2018-11-29T06:33:31.465Z,8.83
2018-11-29T06:36:02.089Z,7.43
2018-11-29T06:38:27.829Z,5.30
2018-11-29T06:40:55.975Z,6.67
2018-11-29T06:43:24.157Z,7.83
2018-11-29T06:45:52.306Z,9.00
2018-11-29T06:48:20.470Z,6.83
2018-11-29T06:50:48.621Z,8.93
2018-11-29T06:53:22.137Z,4.93
2018-11-29T06:55:50.362Z,5.87
2018-11-29T06:58:18.492Z,8.40
2018-11-29T07:00:46.633Z,6.80
2018-11-29T07:03:14.776Z,8.17
2018-11-29T07:05:42.917Z,7.17
2018-11-29T07:08:11.083Z,5.97
2018-11-29T07:10:39.244Z,6.87
2018-11-29T07:13:07.458Z,5.23
2018-11-29T07:15:35.645Z,5.10
2018-11-29T07:18:03.787Z,7.27
2018-11-29T07:20:31.936Z,5.90
2018-11-29T07:23:00.120Z,6.57
2018-11-29T07:25:28.261Z,6.30
2018-11-29T07:27:56.436Z,6.13
2018-11-29T07:30:24.632Z,6.63
2018-11-29T07:32:52.772Z,4.93
2018-11-29T07:35:20.920Z,7.20
2018-11-29T07:37:49.074Z,5.60
2018-11-29T07:40:17.834Z,7.83
2018-11-29T07:42:46.845Z,5.63
2018-11-29T08:13:23.816Z,7.63
2018-11-29T08:15:51.997Z,4.87
2018-11-29T08:18:20.145Z,9.23
2018-11-29T08:20:48.295Z,5.80
2018-11-29T08:23:16.417Z,4.87
2018-11-29T08:25:44.598Z,7.67
2018-11-29T08:28:12.798Z,5.73
2018-11-29T08:30:40.959Z,7.93
2018-11-29T08:33:09.085Z,5.63
2018-11-29T08:35:37.233Z,8.13
2018-11-29T08:38:05.707Z,5.17
2018-11-29T08:40:33.869Z,7.23
2018-11-29T08:43:02.023Z,8.03
2018-11-29T08:45:30.199Z,6.20
2018-11-29T08:47:58.356Z,6.33
2018-11-29T08:50:26.500Z,5.03
2018-11-29T08:52:54.653Z,9.47
2018-11-29T08:55:22.800Z,6.73
2018-11-29T08:57:50.976Z,12.70
2018-11-29T09:00:19.739Z,5.97
2018-11-29T09:02:47.941Z,6.00
2018-11-29T09:05:16.088Z,6.80
2018-11-29T09:07:44.700Z,7.27
2018-11-29T09:10:13.505Z,8.17
2018-11-29T09:12:41.663Z,7.33
2018-11-29T09:15:10.453Z,5.83
2018-11-29T09:17:38.806Z,4.40
2018-11-29T09:20:08.887Z,7.60
2018-11-29T09:22:37.025Z,6.73
2018-11-29T09:25:06.217Z,5.17
2018-11-29T09:27:34.369Z,6.67
2018-11-29T09:30:02.516Z,7.20
2018-11-29T09:32:30.668Z,6.63
2018-11-29T09:34:58.824Z,7.57
2018-11-29T09:37:26.981Z,5.70
2018-11-29T09:39:55.128Z,5.20
2018-11-29T09:42:23.268Z,5.77
2018-11-29T09:44:51.410Z,5.80
2018-11-29T09:47:19.528Z,4.40
2018-11-29T09:49:47.639Z,5.97
2018-11-29T09:52:15.779Z,4.97
2018-11-29T09:54:43.962Z,5.73
2018-11-29T09:57:12.084Z,5.97
2018-11-29T09:59:40.256Z,7.37
2018-11-29T10:02:08.546Z,4.67
2018-11-29T10:04:36.572Z,6.83
2018-11-29T10:07:04.744Z,4.07
2018-11-29T10:09:32.876Z,3.97
2018-11-29T10:12:01.028Z,7.37
2018-11-29T10:14:29.151Z,5.03
2018-11-29T10:16:57.275Z,3.93
2018-11-29T10:19:25.412Z,6.27
2018-11-29T10:21:53.558Z,4.13
2018-11-29T10:24:21.720Z,4.13
2018-11-29T10:26:49.862Z,5.10
2018-11-29T10:29:18.028Z,5.87
2018-11-29T10:31:46.157Z,4.40
2018-11-29T10:34:14.282Z,5.57
2018-11-29T10:36:42.403Z,6.30
2018-11-29T10:39:10.523Z,6.93
2018-11-29T10:41:38.685Z,5.53
2018-11-29T10:44:06.780Z,7.17
2018-11-29T10:46:34.917Z,5.63
2018-11-29T10:49:03.066Z,7.97
2018-11-29T10:51:31.196Z,5.40
2018-11-29T10:53:59.324Z,7.87
2018-11-29T10:56:27.494Z,6.13
2018-11-29T10:58:55.619Z,6.80
2018-11-29T11:01:29.335Z,8.47
2018-11-29T11:03:57.408Z,4.97
2018-11-29T11:06:25.549Z,7.20
2018-11-29T11:08:53.691Z,7.07
2018-11-29T11:11:21.835Z,7.00
2018-11-29T11:13:49.993Z,5.77
2018-11-29T11:16:18.117Z,7.53
2018-11-29T11:18:46.252Z,4.80
2018-11-29T11:21:14.393Z,6.70
2018-11-29T11:23:42.549Z,10.13
2018-11-29T11:26:10.679Z,6.73
2018-11-29T11:28:38.805Z,6.80
2018-11-29T11:31:06.930Z,5.47
2018-11-29T11:33:35.089Z,5.00
2018-11-29T11:36:03.293Z,6.43
2018-11-29T11:38:31.431Z,6.03
2018-11-29T11:40:59.548Z,6.37
2018-11-29T11:43:27.676Z,4.10
2018-11-29T11:45:55.815Z,5.77
2018-11-29T11:48:23.931Z,6.00
2018-11-29T11:50:52.057Z,7.20
2018-11-29T11:53:20.208Z,4.03
2018-11-29T11:55:53.464Z,5.70
2018-11-29T11:58:16.537Z,4.93
2018-11-29T12:00:44.668Z,5.97
2018-11-29T12:03:13.497Z,5.70
2018-11-29T12:05:41.684Z,5.43
2018-11-29T12:08:09.847Z,6.30
2018-11-29T12:10:38.522Z,3.97
2018-11-29T12:13:07.031Z,7.53
2018-11-29T12:15:35.598Z,8.70
2018-11-29T12:18:03.739Z,4.27
2018-11-29T12:20:31.905Z,5.77
2018-11-29T12:23:00.035Z,3.30
2018-11-29T12:25:28.159Z,4.43
2018-11-29T12:27:56.319Z,4.63
2018-11-29T12:30:27.184Z,6.40
2018-11-29T12:32:56.192Z,4.87
2018-11-29T12:35:24.416Z,4.23
2018-11-29T12:37:53.309Z,3.27
2018-11-29T12:40:20.787Z,4.13
2018-11-29T12:42:48.950Z,5.53
2018-11-29T12:45:17.121Z,5.47
2018-11-29T12:47:45.274Z,5.13
2018-11-29T12:50:20.150Z,4.53
2018-11-29T12:52:48.314Z,4.47
2018-11-29T12:55:17.109Z,4.60
2018-11-29T12:57:45.317Z,3.00
2018-11-29T13:00:15.840Z,4.47
2018-11-29T13:02:44.648Z,3.23
2018-11-29T13:05:12.861Z,4.07
2018-11-29T13:07:43.383Z,4.47
2018-11-29T13:10:09.270Z,4.93
2018-11-29T13:12:37.434Z,5.40
2018-11-29T13:15:08.540Z,3.77
2018-11-29T13:17:36.686Z,5.10
2018-11-29T13:20:06.325Z,4.30
2018-11-29T13:22:34.546Z,5.93
2018-11-29T13:25:02.696Z,5.10
2018-11-29T13:27:30.833Z,3.57
2018-11-29T13:29:59.006Z,4.30
2018-11-29T13:32:27.134Z,3.03
2018-11-29T13:34:55.265Z,3.63
2018-11-29T13:37:23.501Z,4.27
2018-11-29T13:39:51.665Z,4.17
2018-11-29T13:42:19.770Z,4.27
2018-11-29T13:44:48.023Z,4.73
2018-11-29T13:47:16.161Z,4.57
2018-11-29T13:49:44.325Z,3.03
2018-11-29T13:52:12.482Z,4.33
2018-11-29T13:54:40.632Z,3.77
2018-11-29T13:57:08.784Z,4.20
2018-11-29T13:59:36.988Z,2.93
2018-11-29T14:02:05.254Z,4.43
2018-11-29T14:04:33.405Z,2.53
2018-11-29T14:07:01.607Z,3.07
2018-11-29T14:09:29.769Z,5.73
2018-11-29T14:11:57.928Z,2.33
2018-11-29T14:14:26.113Z,3.53
2018-11-29T14:16:54.248Z,2.43
2018-11-29T14:19:22.418Z,3.10
2018-11-29T14:21:51.286Z,3.67
2018-11-29T14:24:18.757Z,4.03
2018-11-29T14:26:46.903Z,4.10
2018-11-29T14:29:15.134Z,3.97
2018-11-29T14:31:43.297Z,2.53
2018-11-29T14:34:11.450Z,2.70
2018-11-29T14:36:39.633Z,2.60
2018-11-29T14:39:07.806Z,4.70
2018-11-29T14:41:35.957Z,3.10
2018-11-29T14:44:04.137Z,7.53
2018-11-29T14:46:32.309Z,4.20
2018-11-29T14:49:00.493Z,4.07
2018-11-29T14:51:28.675Z,3.10
2018-11-29T14:53:56.848Z,3.83
2018-11-29T14:56:24.993Z,6.17
2018-11-29T14:58:53.141Z,4.83
2018-11-29T15:01:21.284Z,3.70
2018-11-29T15:03:49.417Z,3.07
2018-11-29T15:06:17.560Z,5.03
2018-11-29T15:08:45.786Z,3.80
2018-11-29T15:11:13.967Z,3.90
2018-11-29T15:13:42.172Z,4.30
2018-11-29T15:16:10.309Z,3.60
2018-11-29T15:18:38.453Z,4.77
2018-11-29T15:21:06.656Z,3.80
2018-11-29T15:23:34.805Z,2.70
2018-11-29T15:26:02.954Z,3.43
2018-11-29T15:28:31.108Z,5.43
2018-11-29T15:30:59.253Z,2.97
2018-11-29T15:33:27.765Z,3.20
2018-11-29T15:35:55.951Z,3.30
2018-11-29T15:38:24.445Z,3.97
2018-11-29T15:40:53.062Z,4.13
2018-11-29T15:43:21.209Z,4.93
2018-11-29T15:45:49.989Z,3.37
2018-11-29T15:48:18.165Z,4.00
2018-11-29T15:50:46.325Z,3.17
2018-11-29T15:53:14.500Z,3.23
2018-11-29T15:55:42.757Z,4.57
2018-11-29T15:58:10.831Z,4.43
2018-11-29T16:00:39.049Z,3.93
2018-11-29T16:03:07.764Z,4.73
2018-11-29T16:05:35.917Z,3.27
2018-11-29T16:08:04.096Z,4.53
2018-11-29T16:10:32.291Z,3.03
2018-11-29T16:13:00.439Z,4.20
2018-11-29T16:15:28.591Z,2.33
2018-11-29T16:17:57.197Z,3.60
2018-11-29T16:20:27.829Z,2.63
2018-11-29T16:22:56.022Z,3.13
2018-11-29T16:25:24.241Z,4.70
2018-11-29T16:27:52.376Z,4.03
2018-11-29T16:30:26.171Z,5.70
2018-11-29T16:32:54.750Z,4.33
2018-11-29T16:35:23.177Z,5.37
2018-11-29T16:37:51.337Z,3.73
2018-11-29T16:40:19.472Z,5.63
2018-11-29T16:42:47.878Z,4.07
2018-11-29T16:45:16.065Z,5.63
2018-11-29T16:47:44.247Z,5.53
2018-11-29T16:50:13.397Z,4.50
2018-11-29T16:52:41.569Z,5.37
2018-11-29T16:55:10.229Z,4.93
2018-11-29T16:57:38.892Z,5.10
2018-11-29T17:00:09.697Z,4.20
2018-11-29T17:02:37.835Z,4.60
2018-11-29T17:05:06.709Z,3.07
2018-11-29T17:07:39.462Z,4.07
2018-11-29T17:10:08.665Z,5.03
2018-11-29T17:12:36.856Z,3.87
2018-11-29T17:15:06.492Z,4.17
2018-11-29T17:17:34.763Z,3.67
2018-11-29T17:20:02.936Z,4.77
2018-11-29T17:22:31.113Z,3.97
2018-11-29T17:24:59.261Z,4.93
2018-11-29T17:27:27.449Z,4.23
2018-11-29T17:29:55.605Z,4.57
2018-11-29T17:32:23.760Z,3.20
2018-11-29T17:34:51.897Z,4.20
2018-11-29T17:37:20.047Z,5.10
2018-11-29T17:39:48.209Z,5.37
2018-11-29T17:42:16.376Z,5.23
2018-11-29T17:44:44.550Z,5.03
2018-11-29T17:47:12.697Z,6.60
2018-11-29T17:49:40.824Z,3.83
2018-11-29T17:52:09.014Z,3.70
2018-11-29T17:54:37.170Z,5.40
2018-11-29T17:57:05.334Z,5.70
2018-11-29T17:59:33.506Z,5.57
2018-11-29T18:02:01.689Z,5.70
2018-11-29T18:04:29.839Z,4.33
2018-11-29T18:06:58.001Z,4.83
2018-11-29T18:09:26.168Z,5.83
2018-11-29T18:11:54.484Z,6.20
2018-11-29T18:14:22.685Z,6.07
2018-11-29T18:16:50.868Z,5.83
2018-11-29T18:19:19.025Z,4.40
2018-11-29T18:21:47.194Z,4.13
2018-11-29T18:24:15.365Z,4.70
2018-11-29T18:26:43.521Z,4.80
2018-11-29T18:29:11.705Z,4.03
2018-11-29T18:31:39.849Z,6.13
2018-11-29T18:34:07.998Z,7.93
2018-11-29T18:36:36.156Z,5.13
2018-11-29T18:39:05.774Z,5.47
2018-11-29T18:41:33.924Z,5.47
2018-11-29T18:44:02.132Z,4.70
2018-11-29T18:46:30.284Z,7.67
2018-11-29T18:48:58.458Z,5.20
2018-11-29T18:51:28.221Z,4.80
2018-11-29T18:53:56.390Z,7.70
2018-11-29T18:56:24.609Z,6.73
2018-11-29T18:58:52.758Z,4.77
2018-11-29T19:01:20.919Z,5.87
2018-11-29T19:03:49.081Z,5.07
2018-11-29T19:06:17.255Z,5.70
2018-11-29T19:08:45.458Z,4.47
2018-11-29T19:11:13.656Z,4.17
2018-11-29T19:13:41.972Z,6.47
2018-11-29T19:16:10.146Z,5.37
2018-11-29T19:18:38.316Z,4.57
2018-11-29T19:21:06.507Z,5.40
2018-11-29T19:23:35.276Z,5.07
2018-11-29T19:54:32.528Z,5.40
2018-11-29T19:57:00.673Z,5.90
2018-11-29T19:59:28.981Z,6.27
2018-11-29T20:01:57.133Z,4.67
2018-11-29T20:04:25.305Z,9.20
2018-11-29T20:06:53.477Z,5.57
2018-11-29T20:09:23.167Z,4.60
2018-11-29T20:11:51.609Z,7.27
2018-11-29T20:14:19.773Z,5.77
2018-11-29T20:16:47.996Z,6.50
2018-11-29T20:50:48.558Z,5.93
2018-11-29T20:53:18.676Z,6.90
2018-11-29T20:55:46.849Z,7.53
2018-11-29T20:58:15.042Z,7.50
2018-11-29T21:00:43.191Z,9.27
2018-11-29T21:03:11.606Z,7.03
2018-11-29T21:05:40.780Z,6.50
2018-11-29T21:08:09.528Z,7.17
2018-11-29T21:10:37.690Z,5.23
2018-11-29T21:13:07.243Z,6.63
2018-11-29T21:15:36.131Z,8.50
2018-11-29T21:18:04.470Z,7.37
2018-11-29T21:20:32.610Z,9.73
2018-11-29T21:23:00.952Z,5.63
2018-11-29T21:25:29.115Z,9.87
2018-11-29T21:27:57.273Z,5.93
2018-11-29T21:30:25.468Z,7.43
2018-11-29T21:32:53.737Z,7.40
2018-11-29T21:35:22.632Z,7.70
2018-11-29T21:37:51.326Z,6.50
2018-11-29T21:40:20.241Z,7.90
2018-11-29T21:42:48.412Z,6.23
2018-11-29T21:45:16.621Z,8.00
2018-11-29T21:47:44.758Z,7.50
2018-11-29T21:50:12.938Z,4.80
2018-11-29T21:52:41.124Z,5.47
2018-11-29T21:55:09.302Z,7.90
2018-11-29T21:57:37.453Z,10.77
2018-11-29T22:00:07.355Z,9.63
2018-11-29T22:02:35.505Z,5.50
2018-11-29T22:05:03.714Z,7.37
2018-11-29T22:07:31.873Z,5.17
2018-11-29T22:10:00.010Z,7.73
2018-11-29T22:12:28.150Z,6.33
2018-11-29T22:14:56.310Z,7.33
2018-11-29T22:17:24.470Z,8.73
2018-11-29T22:19:52.665Z,5.53
2018-11-29T22:22:20.845Z,5.90
2018-11-29T22:24:49.057Z,8.17
2018-11-29T22:27:17.228Z,7.60
2018-11-29T22:29:45.380Z,9.93
2018-11-29T22:32:13.520Z,9.73
2018-11-29T22:34:41.666Z,8.50
2018-11-29T22:37:09.830Z,8.73
2018-11-29T22:39:37.984Z,7.40
2018-11-29T22:42:06.135Z,9.10
2018-11-29T22:44:34.298Z,12.10
2018-11-29T22:47:02.458Z,5.87
2018-11-29T22:49:30.627Z,9.83
2018-11-29T22:51:58.817Z,6.57
2018-11-29T22:54:26.949Z,6.53
2018-11-29T22:56:55.115Z,8.20
2018-11-29T22:59:23.288Z,7.97
2018-11-29T23:01:51.444Z,8.03
2018-11-29T23:04:19.619Z,11.47
2018-11-29T23:06:47.773Z,8.50
2018-11-29T23:09:15.913Z,8.80
2018-11-29T23:11:44.065Z,9.53
2018-11-29T23:14:12.201Z,8.77
2018-11-29T23:16:40.349Z,10.37
2018-11-29T23:19:08.499Z,8.20
2018-11-29T23:21:36.868Z,6.70
2018-11-29T23:24:05.459Z,8.10
2018-11-29T23:26:33.610Z,9.13
2018-11-29T23:29:01.792Z,9.50
2018-11-29T23:31:29.980Z,6.47
2018-11-29T23:33:58.112Z,8.50
2018-11-29T23:36:26.302Z,8.10
2018-11-29T23:38:54.433Z,9.87
2018-11-29T23:41:22.572Z,11.40
2018-11-29T23:43:50.701Z,7.27
2018-11-29T23:46:18.841Z,7.97
2018-11-29T23:48:46.965Z,9.17
2018-11-29T23:51:15.127Z,9.30
2018-11-29T23:53:43.280Z,8.53
2018-11-29T23:56:11.449Z,8.77
2018-11-29T23:58:39.670Z,7.90
